Airfield :
LOGIN :

Register | Disclaimer

   EN    FR    IT 

 










Legend :    VFR   Marginal VFR   IFR   Intensive IFR   Very Intensive IFR
Visi :
Ceiling :
>= 8 km
>= 3000ft
5 to 8 km
1000 to 3000 ft
1500m to 5 km
500 to 1000 ft
800 to 1500m
200 to 500 ft
< 800m
< 200 ft
Symbols :   Thunderstorms  Fog  Heavy snow  Heavy precipitations  Wind > 20 kt
SIGMETs :     Misc.  Thunderstorms  Icing  Turbulence  Mountain Waves  Volcanic Ashes






- Airport Elevation : 2945 ft
- IATA code : RGS


LEBG - Burgos

CURRENT METAR :
  • 282330Z AUTO 23009KT 8000 OVC004 09/09 Q1020

EXPIRED METARs :
  • 282300Z AUTO 22007KT 9000 OVC005 09/09 Q1020
  • 282230Z AUTO 22007KT 8000 OVC004 08/08 Q1020
  • 282200Z AUTO 22006KT 7000 OVC003 08/08 Q1020
  • 282130Z AUTO 23006KT 5000 -SHRA BR BKN004 BKN009 OVC014 08/08 Q1021
  • 282100Z AUTO 21006KT 9999 BKN007 BKN013 08/08 Q1021

TAF TAF LEBG
Valid from the 28 at 18:00 until the 29 at 03:00 UTC


281700Z 2818/2903 22007KT 9999 FEW015 BKN020
PROB30
TEMPO 2818/2903 3000 RA BKN006



MET'MAP, your aeronautical weather chart ! - Copyright ORBIFLY December 2007 - Disclaimer

ORBIFLY MET'MAP TEAM :

Programming & Development : Alexandra Zaïnal
Concept & original design : Baudouin d'Aumeries
Assistance for programming : Marc-Olivier Méhu
Technical & hardware support : Manuel Goepfert

Contact : metmap@orbifly.com




SOURCES & CREDITS :

   NOAA